createdAt,value
2018-12-21T00:00:55.165Z,4.04
2018-12-21T00:01:55.143Z,4
2018-12-21T00:02:55.185Z,4
2018-12-21T00:03:55.113Z,4.04
2018-12-21T00:04:55.217Z,3.97
2018-12-21T00:05:55.075Z,3.96
2018-12-21T00:06:55.060Z,4.08
2018-12-21T00:07:55.042Z,3.92
2018-12-21T00:08:55.027Z,3.96
2018-12-21T00:09:55.013Z,3.97
2018-12-21T00:10:54.991Z,3.97
2018-12-21T00:11:54.980Z,3.99
2018-12-21T00:12:54.968Z,3.99
2018-12-21T00:13:54.950Z,3.99
2018-12-21T00:15:24.236Z,3.99
2018-12-21T00:15:54.903Z,3.94
2018-12-21T00:16:54.641Z,3.99
2018-12-21T00:17:54.870Z,3.89
2018-12-21T00:18:54.867Z,3.9
2018-12-21T00:19:54.842Z,3.96
2018-12-21T00:20:54.825Z,3.97
2018-12-21T00:21:54.815Z,3.92
2018-12-21T00:22:54.790Z,3.96
2018-12-21T00:23:54.778Z,3.97
2018-12-21T00:24:54.762Z,3.89
2018-12-21T00:25:54.744Z,3.96
2018-12-21T00:26:54.772Z,3.92
2018-12-21T00:27:54.711Z,3.86
2018-12-21T00:28:54.700Z,3.96
2018-12-21T00:29:54.431Z,4.02
2018-12-21T00:30:54.661Z,4.02
2018-12-21T00:31:54.656Z,4.04
2018-12-21T00:32:54.633Z,3.9
2018-12-21T00:33:54.616Z,3.96
2018-12-21T00:34:54.600Z,4.03
2018-12-21T00:35:54.336Z,4.03
2018-12-21T00:36:54.568Z,3.9
2018-12-21T00:37:54.303Z,4
2018-12-21T00:38:54.535Z,3.93
2018-12-21T00:39:54.268Z,3.99
2018-12-21T00:40:54.259Z,3.94
2018-12-21T00:41:54.484Z,3.93
2018-12-21T00:42:54.463Z,3.89
2018-12-21T00:43:54.452Z,3.92
2018-12-21T00:44:54.186Z,3.96
2018-12-21T00:45:54.413Z,3.86
2018-12-21T00:46:54.403Z,3.92
2018-12-21T00:47:54.383Z,3.84
2018-12-21T00:48:54.367Z,3.96
2018-12-21T00:49:54.355Z,3.92
2018-12-21T00:50:54.336Z,3.84
2018-12-21T00:51:54.321Z,3.85
2018-12-21T00:52:54.309Z,3.9
2018-12-21T00:53:54.287Z,3.84
2018-12-21T00:54:54.272Z,3.82
2018-12-21T00:55:54.008Z,3.96
2018-12-21T00:56:53.992Z,3.89
2018-12-21T00:57:54.224Z,3.97
2018-12-21T00:58:54.206Z,3.86
2018-12-21T00:59:53.941Z,3.92
2018-12-21T01:00:53.924Z,3.97
2018-12-21T01:01:54.159Z,3.92
2018-12-21T01:02:53.891Z,3.84
2018-12-21T01:03:54.126Z,3.81
2018-12-21T01:04:54.112Z,3.84
2018-12-21T01:05:54.108Z,3.89
2018-12-21T01:06:53.583Z,3.82
2018-12-21T01:07:54.061Z,3.86
2018-12-21T01:08:54.044Z,3.92
2018-12-21T01:09:54.024Z,3.86
2018-12-21T01:10:54.012Z,3.86
2018-12-21T01:11:53.999Z,3.9
2018-12-21T01:12:53.979Z,3.85
2018-12-21T01:13:53.967Z,3.9
2018-12-21T01:14:53.950Z,3.82
2018-12-21T01:15:53.681Z,3.85
2018-12-21T01:16:53.665Z,3.86
2018-12-21T01:17:53.894Z,3.78
2018-12-21T01:18:53.637Z,3.85
2018-12-21T01:19:53.867Z,3.79
2018-12-21T01:20:53.852Z,3.86
2018-12-21T01:21:53.829Z,3.86
2018-12-21T01:22:53.806Z,3.84
2018-12-21T01:23:53.836Z,3.89
2018-12-21T01:24:53.796Z,3.97
2018-12-21T01:25:53.520Z,3.93
2018-12-21T01:26:53.760Z,3.93
2018-12-21T01:27:53.739Z,3.97
2018-12-21T01:28:53.717Z,4
2018-12-21T01:29:53.453Z,3.85
2018-12-21T01:30:53.686Z,3.92
2018-12-21T01:31:53.666Z,3.92
2018-12-21T01:32:53.751Z,3.97
2018-12-21T01:33:53.634Z,3.99
2018-12-21T01:34:53.614Z,3.93
2018-12-21T01:35:53.609Z,3.97
2018-12-21T01:36:53.431Z,3.92
2018-12-21T01:37:53.563Z,3.92
2018-12-21T01:38:53.554Z,3.97
2018-12-21T01:39:53.542Z,3.94
2018-12-21T01:40:53.517Z,3.96
2018-12-21T01:41:53.534Z,3.89
2018-12-21T01:42:53.485Z,3.92
2018-12-21T01:43:53.471Z,3.94
2018-12-21T01:44:53.463Z,3.93
2018-12-21T01:45:53.437Z,3.85
2018-12-21T01:46:53.175Z,3.96
2018-12-21T01:47:53.399Z,3.85
2018-12-21T01:48:53.397Z,3.97
2018-12-21T01:49:53.126Z,3.89
2018-12-21T01:50:53.356Z,3.84
2018-12-21T01:51:53.342Z,3.84
2018-12-21T01:52:53.080Z,3.89
2018-12-21T01:53:53.307Z,3.86
2018-12-21T01:54:53.042Z,3.84
2018-12-21T01:55:53.028Z,3.92
2018-12-21T01:56:53.257Z,3.89
2018-12-21T01:57:53.361Z,3.86
2018-12-21T01:58:53.221Z,3.93
2018-12-21T01:59:53.212Z,3.94
2018-12-21T02:00:52.946Z,3.94
2018-12-21T02:01:53.269Z,3.89
2018-12-21T02:02:53.156Z,3.86
2018-12-21T02:03:53.140Z,3.93
2018-12-21T02:04:53.127Z,3.93
2018-12-21T02:05:53.113Z,3.84
2018-12-21T02:06:52.851Z,3.81
2018-12-21T02:07:53.145Z,3.86
2018-12-21T02:08:52.820Z,3.93
2018-12-21T02:09:53.042Z,3.93
2018-12-21T02:10:53.039Z,3.93
2018-12-21T02:11:53.017Z,4.03
2018-12-21T02:12:53.004Z,3.92
2018-12-21T02:13:52.982Z,4.02
2018-12-21T02:14:52.964Z,3.94
2018-12-21T02:15:52.954Z,4.1
2018-12-21T02:16:52.930Z,4.1
2018-12-21T02:17:52.911Z,4
2018-12-21T02:18:52.892Z,4.07
2018-12-21T02:19:52.635Z,4.08
2018-12-21T02:20:52.870Z,4.03
2018-12-21T02:22:00.577Z,4.03
2018-12-21T02:22:52.592Z,4.07
2018-12-21T02:23:52.820Z,4.11
2018-12-21T02:24:52.799Z,4.12
2018-12-21T02:25:52.790Z,4.12
2018-12-21T02:26:52.772Z,4.08
2018-12-21T02:27:52.754Z,4.11
2018-12-21T02:28:52.740Z,4.11
2018-12-21T02:29:52.715Z,4.08
2018-12-21T02:30:52.708Z,4.15
2018-12-21T02:31:52.445Z,4.11
2018-12-21T02:32:52.424Z,4.11
2018-12-21T02:33:52.411Z,4.11
2018-12-21T02:34:52.741Z,4.17
2018-12-21T02:35:52.624Z,4.1
2018-12-21T02:36:52.362Z,4.11
2018-12-21T02:37:52.604Z,4.11
2018-12-21T02:38:52.575Z,4.14
2018-12-21T02:39:52.560Z,4.15
2018-12-21T02:40:52.291Z,4.17
2018-12-21T02:41:52.522Z,4.14
2018-12-21T02:42:52.508Z,4.17
2018-12-21T02:43:52.249Z,4.14
2018-12-21T02:44:52.235Z,4.2
2018-12-21T02:45:52.209Z,4.18
2018-12-21T02:46:52.448Z,4.18
2018-12-21T02:47:52.431Z,4.11
2018-12-21T02:48:52.414Z,4.14
2018-12-21T02:49:52.400Z,4.12
2018-12-21T02:50:52.381Z,4.12
2018-12-21T02:51:52.122Z,4.17
2018-12-21T02:52:52.366Z,4.14
2018-12-21T02:53:52.333Z,4.18
2018-12-21T02:54:52.314Z,4.17
2018-12-21T02:55:52.299Z,4.15
2018-12-21T02:56:52.284Z,4.12
2018-12-21T02:57:52.262Z,4.2
2018-12-21T02:58:52.008Z,4.17
2018-12-21T02:59:52.232Z,4.17
2018-12-21T03:00:52.224Z,4.2
2018-12-21T03:01:52.203Z,4.24
2018-12-21T03:02:52.186Z,4.14
2018-12-21T03:03:52.174Z,4.17
2018-12-21T03:04:52.158Z,4.14
2018-12-21T03:05:52.135Z,4.17
2018-12-21T03:06:52.125Z,4.18
2018-12-21T03:07:52.106Z,4.2
2018-12-21T03:08:52.090Z,4.17
2018-12-21T03:09:51.831Z,4.15
2018-12-21T03:10:52.060Z,4.18
2018-12-21T03:11:52.041Z,4.2
2018-12-21T03:12:52.025Z,4.17
2018-12-21T03:13:52.020Z,4.15
2018-12-21T03:14:51.756Z,4.11
2018-12-21T03:15:51.978Z,4.2
2018-12-21T03:16:51.955Z,4.12
2018-12-21T03:17:51.951Z,4.17
2018-12-21T03:18:53.894Z,4.14
2018-12-21T03:19:51.922Z,4.2
2018-12-21T03:20:51.399Z,4.15
2018-12-21T03:21:51.877Z,4.14
2018-12-21T03:22:51.858Z,4.15
2018-12-21T03:23:51.845Z,4.22
2018-12-21T03:24:51.838Z,4.26
2018-12-21T03:25:51.815Z,4.22
2018-12-21T03:26:51.799Z,4.24
2018-12-21T03:27:51.782Z,4.22
2018-12-21T03:28:51.761Z,4.26
2018-12-21T03:29:51.749Z,4.32
2018-12-21T03:30:51.504Z,4.29
2018-12-21T03:31:51.750Z,4.29
2018-12-21T03:32:51.715Z,4.29
2018-12-21T03:33:51.457Z,4.3
2018-12-21T03:34:51.677Z,4.32
2018-12-21T03:35:51.691Z,4.24
2018-12-21T03:36:51.395Z,4.29
2018-12-21T03:37:51.619Z,4.22
2018-12-21T03:38:51.600Z,4.29
2018-12-21T03:39:51.338Z,4.28
2018-12-21T03:40:51.577Z,4.26
2018-12-21T03:41:51.563Z,4.35
2018-12-21T03:42:51.540Z,4.36
2018-12-21T03:43:51.527Z,4.36
2018-12-21T03:44:51.508Z,4.39
2018-12-21T03:45:51.490Z,4.36
2018-12-21T03:46:51.525Z,4.3
2018-12-21T03:47:51.461Z,4.38
2018-12-21T03:48:51.444Z,4.35
2018-12-21T03:49:51.427Z,4.33
2018-12-21T03:50:51.160Z,4.32
2018-12-21T03:51:51.524Z,4.24
2018-12-21T03:52:51.377Z,4.33
2018-12-21T03:53:51.121Z,4.35
2018-12-21T03:54:51.098Z,4.3
2018-12-21T03:55:51.331Z,4.38
2018-12-21T03:56:51.310Z,4.33
2018-12-21T03:57:51.051Z,4.3
2018-12-21T03:58:51.303Z,4.28
2018-12-21T03:59:51.273Z,4.3
2018-12-21T04:00:51.006Z,4.26
2018-12-21T04:01:51.235Z,4.33
2018-12-21T04:02:51.222Z,4.35
2018-12-21T04:03:51.208Z,4.29
2018-12-21T04:04:51.185Z,4.3
2018-12-21T04:05:51.172Z,4.35
2018-12-21T04:06:51.155Z,4.24
2018-12-21T04:07:51.136Z,4.29
2018-12-21T04:08:51.122Z,4.33
2018-12-21T04:09:50.937Z,4.3
2018-12-21T04:10:51.092Z,4.3
2018-12-21T04:11:51.076Z,4.32
2018-12-21T04:12:50.825Z,4.36
2018-12-21T04:13:51.062Z,4.33
2018-12-21T04:14:51.021Z,4.36
2018-12-21T04:15:51.010Z,4.35
2018-12-21T04:16:50.994Z,4.36
2018-12-21T04:17:50.971Z,4.29
2018-12-21T04:18:50.959Z,4.36
2018-12-21T04:19:50.948Z,4.29
2018-12-21T04:20:50.923Z,4.29
2018-12-21T04:21:50.917Z,4.39
2018-12-21T04:22:50.900Z,4.38
2018-12-21T04:23:50.892Z,4.39
2018-12-21T04:24:50.867Z,4.29
2018-12-21T04:25:50.843Z,4.33
2018-12-21T04:26:50.832Z,4.35
2018-12-21T04:27:50.819Z,4.3
2018-12-21T04:28:50.808Z,4.26
2018-12-21T04:29:50.781Z,4.36
2018-12-21T04:30:50.773Z,4.35
2018-12-21T04:31:50.755Z,4.35
2018-12-21T04:32:50.741Z,4.2
2018-12-21T04:33:50.720Z,4.32
2018-12-21T04:34:50.712Z,4.28
2018-12-21T04:35:50.683Z,4.24
2018-12-21T04:36:50.684Z,4.26
2018-12-21T04:37:50.661Z,4.28
2018-12-21T04:38:50.398Z,4.28
2018-12-21T04:39:50.415Z,4.2
2018-12-21T04:40:50.606Z,4.29
2018-12-21T04:41:50.603Z,4.21
2018-12-21T04:42:50.601Z,4.21
2018-12-21T04:43:50.563Z,4.22
2018-12-21T04:44:50.548Z,4.18
2018-12-21T04:45:50.530Z,4.1
2018-12-21T04:46:50.512Z,4.18
2018-12-21T04:47:50.511Z,4.18
2018-12-21T04:48:50.232Z,4.2
2018-12-21T04:49:50.463Z,4.15
2018-12-21T04:50:50.447Z,4.21
2018-12-21T04:51:50.430Z,4.2
2018-12-21T04:52:50.425Z,4.33
2018-12-21T04:53:50.401Z,4.26
2018-12-21T04:54:50.399Z,4.21
2018-12-21T04:55:50.127Z,4.28
2018-12-21T04:56:50.346Z,4.21
2018-12-21T04:57:50.334Z,4.21
2018-12-21T04:58:50.317Z,4.2
2018-12-21T04:59:50.300Z,4.2
2018-12-21T05:00:50.043Z,4.26
2018-12-21T05:01:50.285Z,4.26
2018-12-21T05:02:50.256Z,4.2
2018-12-21T05:03:50.252Z,4.22
2018-12-21T05:04:50.226Z,4.24
2018-12-21T05:05:50.206Z,4.35
2018-12-21T05:06:50.182Z,4.28
2018-12-21T05:07:50.184Z,4.18
2018-12-21T05:08:50.152Z,4.32
2018-12-21T05:09:50.138Z,4.3
2018-12-21T05:10:50.126Z,4.21
2018-12-21T05:11:50.211Z,4.29
2018-12-21T05:12:50.090Z,4.29
2018-12-21T05:13:49.823Z,4.33
2018-12-21T05:14:50.057Z,4.2
2018-12-21T05:15:50.043Z,4.28
2018-12-21T05:16:49.531Z,4.32
2018-12-21T05:17:49.760Z,4.26
2018-12-21T05:18:49.995Z,4.18
2018-12-21T05:19:49.981Z,4.29
2018-12-21T05:20:49.962Z,4.32
2018-12-21T05:21:49.948Z,4.28
2018-12-21T05:22:57.151Z,4.33
2018-12-21T05:23:49.909Z,4.36
2018-12-21T05:24:49.896Z,4.33
2018-12-21T05:25:49.882Z,4.32
2018-12-21T05:26:49.868Z,4.32
2018-12-21T05:27:49.604Z,4.39
2018-12-21T05:28:49.840Z,4.42
2018-12-21T05:29:49.927Z,4.42
2018-12-21T05:30:49.810Z,4.4
2018-12-21T05:31:49.785Z,4.44
2018-12-21T05:32:49.778Z,4.44
2018-12-21T05:33:49.753Z,4.4
2018-12-21T05:34:50.055Z,4.4
2018-12-21T05:35:49.724Z,4.39
2018-12-21T05:36:49.710Z,4.35
2018-12-21T05:37:49.688Z,4.35
2018-12-21T05:38:49.675Z,4.44
2018-12-21T05:39:49.690Z,4.32
2018-12-21T05:40:49.645Z,4.35
2018-12-21T05:41:49.375Z,4.35
2018-12-21T05:42:49.359Z,4.39
2018-12-21T05:43:49.589Z,4.39
2018-12-21T05:44:49.583Z,4.36
2018-12-21T05:45:49.567Z,4.36
2018-12-21T05:46:49.301Z,4.28
2018-12-21T05:47:49.530Z,4.36
2018-12-21T05:48:49.513Z,4.33
2018-12-21T05:49:49.494Z,4.42
2018-12-21T05:50:49.546Z,4.36
2018-12-21T05:51:49.469Z,4.28
2018-12-21T05:52:49.449Z,4.33
2018-12-21T05:53:49.430Z,4.42
2018-12-21T05:54:49.419Z,4.35
2018-12-21T05:55:49.152Z,4.28
2018-12-21T05:56:49.136Z,4.26
2018-12-21T05:57:49.371Z,4.36
2018-12-21T05:58:49.356Z,4.38
2018-12-21T05:59:49.335Z,4.38
2018-12-21T06:00:49.322Z,4.32
2018-12-21T06:01:49.306Z,4.24
2018-12-21T06:02:49.286Z,4.35
2018-12-21T06:03:49.279Z,4.3
2018-12-21T06:04:49.257Z,4.3
2018-12-21T06:05:48.997Z,4.26
2018-12-21T06:06:49.227Z,4.24
2018-12-21T06:07:48.962Z,4.28
2018-12-21T06:08:49.195Z,4.26
2018-12-21T06:09:48.931Z,4.29
2018-12-21T06:10:49.162Z,4.26
2018-12-21T06:11:49.141Z,4.18
2018-12-21T06:12:48.885Z,4.24
2018-12-21T06:13:48.863Z,4.3
2018-12-21T06:14:49.099Z,4.3
2018-12-21T06:15:49.084Z,4.29
2018-12-21T06:16:48.814Z,4.18
2018-12-21T06:17:49.047Z,4.24
2018-12-21T06:18:49.032Z,4.2
2018-12-21T06:19:49.023Z,4.2
2018-12-21T06:20:48.997Z,4.18
2018-12-21T06:21:48.984Z,4.29
2018-12-21T06:22:48.723Z,4.28
2018-12-21T06:23:48.958Z,4.26
2018-12-21T06:24:48.942Z,4.24
2018-12-21T06:25:48.922Z,4.32
2018-12-21T06:26:48.904Z,4.26
2018-12-21T06:27:48.891Z,4.29
2018-12-21T06:28:48.883Z,4.24
2018-12-21T06:29:48.853Z,4.26
2018-12-21T06:30:48.839Z,4.24
2018-12-21T06:31:48.822Z,4.17
2018-12-21T06:32:48.850Z,4.26
2018-12-21T06:33:48.795Z,4.22
2018-12-21T06:34:48.530Z,4.15
2018-12-21T06:35:48.517Z,4.32
2018-12-21T06:36:48.744Z,4.26
2018-12-21T06:37:50.973Z,4.22
2018-12-21T06:38:48.714Z,4.29
2018-12-21T06:39:48.697Z,4.29
2018-12-21T06:40:48.810Z,4.26
2018-12-21T06:41:48.674Z,4.26
2018-12-21T06:42:48.402Z,4.29
2018-12-21T06:43:48.634Z,4.26
2018-12-21T06:44:48.615Z,4.3
2018-12-21T06:45:48.603Z,4.33
2018-12-21T06:46:48.588Z,4.35
2018-12-21T06:47:48.577Z,4.28
2018-12-21T06:48:48.307Z,4.39
2018-12-21T06:49:48.540Z,4.29
2018-12-21T06:50:48.521Z,4.28
2018-12-21T06:51:48.502Z,4.33
2018-12-21T06:52:48.491Z,4.36
2018-12-21T06:53:48.471Z,4.33
2018-12-21T06:54:48.458Z,4.35
2018-12-21T06:55:48.436Z,4.35
2018-12-21T06:56:48.425Z,4.42
2018-12-21T06:57:48.407Z,4.46
2018-12-21T06:58:48.393Z,4.39
2018-12-21T06:59:48.373Z,4.44
2018-12-21T07:00:48.360Z,4.4
2018-12-21T07:01:48.344Z,4.47
2018-12-21T07:02:48.328Z,4.4
2018-12-21T07:03:48.312Z,4.42
2018-12-21T07:04:48.295Z,4.42
2018-12-21T07:05:48.285Z,4.46
2018-12-21T07:06:48.262Z,4.46
2018-12-21T07:07:48.251Z,4.46
2018-12-21T07:08:48.330Z,4.47
2018-12-21T07:09:48.214Z,4.48
2018-12-21T07:10:48.202Z,4.47
2018-12-21T07:11:48.189Z,4.48
2018-12-21T07:12:49.440Z,4.54
2018-12-21T07:13:48.148Z,4.53
2018-12-21T07:14:48.136Z,4.51
2018-12-21T07:15:48.123Z,4.48
2018-12-21T07:16:48.102Z,4.53
2018-12-21T07:17:47.844Z,4.48
2018-12-21T07:18:48.073Z,4.54
2018-12-21T07:19:48.165Z,4.6
2018-12-21T07:20:48.038Z,4.51
2018-12-21T07:21:48.034Z,4.54
2018-12-21T07:22:48.007Z,4.53
2018-12-21T07:23:47.995Z,4.54
2018-12-21T07:24:47.739Z,4.46
2018-12-21T07:25:47.967Z,4.46
2018-12-21T07:26:47.949Z,4.46
2018-12-21T07:27:47.686Z,4.53
2018-12-21T07:28:47.918Z,4.56
2018-12-21T07:29:47.653Z,4.51
2018-12-21T07:30:47.881Z,4.53
2018-12-21T07:31:47.908Z,4.6
2018-12-21T07:32:47.946Z,4.5
2018-12-21T08:08:27.099Z,4.69
2018-12-21T08:09:12.179Z,4.68
2018-12-21T08:10:12.411Z,4.64
2018-12-21T08:11:12.400Z,4.61
2018-12-21T08:12:12.382Z,4.64
2018-12-21T08:13:12.366Z,4.58
2018-12-21T08:14:12.357Z,4.51
2018-12-21T08:15:12.338Z,4.53
2018-12-21T08:16:12.072Z,4.53
2018-12-21T08:17:12.307Z,4.51
2018-12-21T08:18:12.349Z,4.53
2018-12-21T08:19:12.288Z,4.61
2018-12-21T08:20:12.257Z,4.47
2018-12-21T08:21:12.243Z,4.51
2018-12-21T08:22:12.226Z,4.57
2018-12-21T08:23:12.211Z,4.5
2018-12-21T08:24:12.196Z,4.57
2018-12-21T08:25:12.178Z,4.53
2018-12-21T08:26:12.163Z,4.44
2018-12-21T08:27:11.652Z,4.56
2018-12-21T08:28:12.128Z,4.6
2018-12-21T08:29:12.116Z,4.57
2018-12-21T08:30:12.095Z,4.48
2018-12-21T08:31:13.693Z,4.61
2018-12-21T08:32:12.063Z,4.54
2018-12-21T08:33:12.050Z,4.53
2018-12-21T08:34:12.036Z,4.57
2018-12-21T08:35:12.025Z,4.51
2018-12-21T08:36:11.998Z,4.51
2018-12-21T08:37:11.738Z,4.44
2018-12-21T08:38:11.968Z,4.61
2018-12-21T08:39:11.955Z,4.5
2018-12-21T08:40:11.938Z,4.5
2018-12-21T08:41:11.924Z,4.5
2018-12-21T08:42:12.018Z,4.56
2018-12-21T08:43:11.935Z,4.56
2018-12-21T08:44:11.878Z,4.56
2018-12-21T08:45:11.862Z,4.57
2018-12-21T08:46:11.608Z,4.42
2018-12-21T08:47:11.826Z,4.51
2018-12-21T08:48:11.810Z,4.53
2018-12-21T08:49:11.803Z,4.47
2018-12-21T08:50:11.782Z,4.5
2018-12-21T08:51:11.772Z,4.5
2018-12-21T08:52:11.751Z,4.53
2018-12-21T08:53:11.732Z,4.47
2018-12-21T08:54:11.721Z,4.56
2018-12-21T08:55:11.946Z,4.5
2018-12-21T08:56:11.702Z,4.46
2018-12-21T08:57:11.675Z,4.51
2018-12-21T08:58:11.660Z,4.48
2018-12-21T08:59:11.640Z,4.56
2018-12-21T09:00:11.631Z,4.48
2018-12-21T09:01:11.611Z,4.42
2018-12-21T09:02:11.594Z,4.51
2018-12-21T09:03:11.333Z,4.6
2018-12-21T09:04:11.559Z,4.64
2018-12-21T09:05:11.552Z,4.58
2018-12-21T09:06:18.358Z,4.6
2018-12-21T09:07:11.512Z,4.68
2018-12-21T09:08:11.255Z,4.66
2018-12-21T09:09:11.491Z,4.68
2018-12-21T09:10:11.470Z,4.71
2018-12-21T09:11:11.209Z,4.75
2018-12-21T09:12:11.184Z,4.76
2018-12-21T09:13:11.420Z,4.78
2018-12-21T09:14:12.038Z,4.91
2018-12-21T09:15:11.388Z,4.85
2018-12-21T09:16:11.375Z,4.83
2018-12-21T09:17:11.447Z,4.92
2018-12-21T09:18:11.386Z,4.95
2018-12-21T09:19:11.332Z,4.98
2018-12-21T09:20:11.317Z,4.97
2018-12-21T09:21:11.050Z,4.92
2018-12-21T09:22:11.037Z,4.97
2018-12-21T09:23:11.020Z,4.94
2018-12-21T09:24:11.007Z,5
2018-12-21T09:25:11.237Z,4.94
2018-12-21T09:26:11.219Z,5.02
2018-12-21T09:27:10.997Z,4.97
2018-12-21T09:28:11.192Z,5.05
2018-12-21T09:29:11.185Z,5.02
2018-12-21T09:30:11.165Z,5.09
2018-12-21T09:31:11.225Z,5.08
2018-12-21T09:32:11.133Z,5.09
2018-12-21T09:33:11.114Z,5.08
2018-12-21T09:34:11.099Z,5.02
2018-12-21T09:35:11.092Z,5.08
2018-12-21T09:36:10.818Z,5.09
2018-12-21T09:37:10.810Z,5.05
2018-12-21T09:38:10.785Z,5.09
2018-12-21T09:39:11.019Z,5.13
2018-12-21T09:40:11.093Z,5.15
2018-12-21T09:41:10.992Z,5.13
2018-12-21T09:42:10.980Z,5.13
2018-12-21T09:43:10.823Z,5.09
2018-12-21T09:44:10.945Z,5.15
2018-12-21T09:45:10.926Z,5.1
2018-12-21T09:46:10.911Z,5.12
2018-12-21T09:47:10.895Z,5.12
2018-12-21T09:48:10.885Z,5.06
2018-12-21T09:49:10.872Z,5.09
2018-12-21T09:50:10.853Z,5.08
2018-12-21T09:51:10.838Z,5.12
2018-12-21T09:52:10.824Z,5.05
2018-12-21T09:53:10.813Z,5.08
2018-12-21T09:54:14.997Z,5.08
2018-12-21T09:55:10.772Z,4.95
2018-12-21T09:56:10.757Z,5.03
2018-12-21T09:57:10.743Z,4.97
2018-12-21T09:58:10.732Z,5
2018-12-21T09:59:12.595Z,4.92
2018-12-21T10:00:10.453Z,4.94
2018-12-21T10:01:10.432Z,4.94
2018-12-21T10:02:10.667Z,4.87
2018-12-21T10:03:10.407Z,4.85
2018-12-21T10:04:10.637Z,4.83
2018-12-21T10:05:10.626Z,4.83
2018-12-21T10:06:10.605Z,4.84
2018-12-21T10:07:10.592Z,4.85
2018-12-21T10:08:10.574Z,4.88
2018-12-21T10:09:10.557Z,4.74
2018-12-21T10:10:10.542Z,4.84
2018-12-21T10:11:10.281Z,4.79
2018-12-21T10:12:10.269Z,4.83
2018-12-21T10:13:11.128Z,4.76
2018-12-21T10:14:10.233Z,4.76
2018-12-21T10:15:10.475Z,4.68
2018-12-21T10:16:10.455Z,4.69
2018-12-21T10:17:10.452Z,4.66
2018-12-21T10:18:10.423Z,4.69
2018-12-21T10:19:10.408Z,4.65
2018-12-21T10:20:10.388Z,4.68
2018-12-21T10:21:10.127Z,4.64
2018-12-21T10:22:10.363Z,4.56
2018-12-21T10:23:10.095Z,4.66
2018-12-21T10:24:18.235Z,4.61
2018-12-21T10:25:10.318Z,4.61
2018-12-21T10:26:10.057Z,4.64
2018-12-21T10:27:10.282Z,4.57
2018-12-21T10:28:10.284Z,4.6
2018-12-21T10:29:10.244Z,4.51
2018-12-21T10:30:10.234Z,4.57
2018-12-21T10:31:09.969Z,4.6
2018-12-21T10:32:10.203Z,4.46
2018-12-21T10:33:10.192Z,4.48
2018-12-21T10:34:10.167Z,4.5
2018-12-21T10:35:10.150Z,4.54
2018-12-21T10:36:10.136Z,4.56
2018-12-21T10:37:09.875Z,4.5
2018-12-21T10:38:10.113Z,4.48
2018-12-21T10:39:10.092Z,4.53
2018-12-21T10:40:10.077Z,4.53
2018-12-21T10:41:09.823Z,4.6
2018-12-21T10:42:10.045Z,4.61
2018-12-21T10:43:10.028Z,4.66
2018-12-21T10:44:09.764Z,4.6
2018-12-21T10:45:10.072Z,4.66
2018-12-21T10:46:09.981Z,4.65
2018-12-21T10:47:09.963Z,4.71
2018-12-21T10:48:09.952Z,4.68
2018-12-21T10:49:09.932Z,4.68
2018-12-21T10:50:09.667Z,4.64
2018-12-21T10:51:09.899Z,4.72
2018-12-21T10:52:09.887Z,4.83
2018-12-21T10:53:09.866Z,4.78
2018-12-21T10:54:09.853Z,4.74
2018-12-21T10:55:09.835Z,4.71
2018-12-21T10:56:09.827Z,4.74
2018-12-21T10:57:09.881Z,4.69
2018-12-21T10:58:09.795Z,4.74
2018-12-21T10:59:09.774Z,4.75
2018-12-21T11:00:09.763Z,4.79
2018-12-21T11:01:09.752Z,4.79
2018-12-21T11:02:09.480Z,4.76
2018-12-21T11:03:09.717Z,4.88
2018-12-21T11:04:09.699Z,4.83
2018-12-21T11:05:09.679Z,4.87
2018-12-21T11:06:09.667Z,4.91
2018-12-21T11:07:09.651Z,4.84
2018-12-21T11:08:09.636Z,4.95
2018-12-21T11:09:09.624Z,4.94
2018-12-21T11:10:09.364Z,4.92
2018-12-21T11:11:09.587Z,4.91
2018-12-21T11:12:09.570Z,4.91
2018-12-21T11:13:09.562Z,4.94
2018-12-21T11:14:09.539Z,4.91
2018-12-21T11:15:09.535Z,4.91
2018-12-21T11:16:09.513Z,4.97
2018-12-21T11:17:09.494Z,4.94
2018-12-21T11:18:09.482Z,4.91
2018-12-21T11:19:09.463Z,4.91
2018-12-21T11:20:09.459Z,4.87
2018-12-21T11:21:09.434Z,4.87
2018-12-21T11:22:09.416Z,4.79
2018-12-21T11:23:09.153Z,4.87
2018-12-21T11:24:09.383Z,4.9
2018-12-21T11:25:09.371Z,4.88
2018-12-21T11:26:09.355Z,4.79
2018-12-21T11:27:09.337Z,4.87
2018-12-21T11:28:09.319Z,4.79
2018-12-21T11:29:09.305Z,4.83
2018-12-21T11:30:09.058Z,4.9
2018-12-21T11:31:09.276Z,4.78
2018-12-21T11:32:09.265Z,4.85
2018-12-21T11:33:09.252Z,4.87
2018-12-21T11:34:09.234Z,4.92
2018-12-21T11:35:09.225Z,4.9
2018-12-21T11:36:08.949Z,4.9
2018-12-21T11:37:09.185Z,4.9
2018-12-21T11:38:09.173Z,4.94
2018-12-21T11:39:09.155Z,4.92
2018-12-21T11:40:09.140Z,4.95
2018-12-21T11:41:09.122Z,4.94
2018-12-21T11:42:09.109Z,5.02
2018-12-21T11:43:09.095Z,4.97
2018-12-21T11:44:09.076Z,4.95
2018-12-21T11:45:08.813Z,4.97
2018-12-21T11:46:09.049Z,4.94
2018-12-21T11:47:09.028Z,4.91
2018-12-21T11:48:09.022Z,4.94
2018-12-21T11:49:08.999Z,4.92
2018-12-21T11:50:08.984Z,4.91
2018-12-21T11:51:08.969Z,4.91
2018-12-21T11:52:08.949Z,4.91
2018-12-21T11:53:08.932Z,4.91
2018-12-21T11:54:08.924Z,4.92
2018-12-21T11:55:08.913Z,4.91
2018-12-21T11:56:08.641Z,4.97
2018-12-21T11:57:08.872Z,4.94
2018-12-21T11:58:08.610Z,4.91
2018-12-21T11:59:08.842Z,5.02
2018-12-21T12:00:08.827Z,4.97
2018-12-21T12:01:08.816Z,5.05
2018-12-21T12:02:08.801Z,4.98
2018-12-21T12:03:08.786Z,5.06
2018-12-21T12:04:08.897Z,5.08
2018-12-21T12:05:08.759Z,5.15
2018-12-21T12:06:08.735Z,5.12
2018-12-21T12:07:08.722Z,5.2
2018-12-21T12:08:08.704Z,5.15
2018-12-21T12:09:11.344Z,5.23
2018-12-21T12:10:08.426Z,5.21
2018-12-21T12:11:08.415Z,5.21
2018-12-21T12:12:08.643Z,5.2
2018-12-21T12:13:08.628Z,5.26
2018-12-21T12:14:08.615Z,5.26
2018-12-21T12:15:08.602Z,5.23
2018-12-21T12:16:08.583Z,5.2
2018-12-21T12:17:08.574Z,5.26
2018-12-21T12:18:08.554Z,5.26
2018-12-21T12:19:08.536Z,5.18
2018-12-21T12:20:08.523Z,5.24
2018-12-21T12:21:08.506Z,5.23
2018-12-21T12:22:08.240Z,5.31
2018-12-21T12:23:08.230Z,5.31
2018-12-21T12:24:08.459Z,5.37
2018-12-21T12:25:08.202Z,5.44
2018-12-21T12:26:08.483Z,5.39
2018-12-21T12:27:08.418Z,5.37
2018-12-21T12:28:08.404Z,5.48
2018-12-21T12:29:08.385Z,5.48
2018-12-21T12:30:08.376Z,5.48
2018-12-21T12:31:08.361Z,5.51
2018-12-21T12:32:08.344Z,5.48
2018-12-21T12:33:08.077Z,5.51
2018-12-21T12:34:08.311Z,5.46
2018-12-21T12:35:08.301Z,5.59
2018-12-21T12:36:08.283Z,5.57
2018-12-21T12:37:08.282Z,5.51
2018-12-21T12:38:08.263Z,5.51
2018-12-21T12:39:08.234Z,5.55
2018-12-21T12:40:07.976Z,5.64
2018-12-21T12:41:11.683Z,5.62
2018-12-21T12:42:08.362Z,5.59
2018-12-21T12:43:07.930Z,5.66
2018-12-21T12:44:08.160Z,5.73
2018-12-21T12:45:08.149Z,5.75
2018-12-21T12:46:07.887Z,5.7
2018-12-21T12:47:08.121Z,5.7
2018-12-21T12:48:08.099Z,5.75
2018-12-21T12:49:08.089Z,5.7
2018-12-21T12:50:07.580Z,5.7
2018-12-21T12:51:08.062Z,5.72
2018-12-21T12:52:07.797Z,5.63
2018-12-21T12:53:08.117Z,5.67
2018-12-21T12:54:08.024Z,5.66
2018-12-21T12:55:08.165Z,5.64
2018-12-21T12:56:10.060Z,5.59
2018-12-21T12:57:07.728Z,5.6
2018-12-21T12:58:07.951Z,5.66
2018-12-21T12:59:07.942Z,5.62
2018-12-21T13:00:07.677Z,5.64
2018-12-21T13:01:07.914Z,5.55
2018-12-21T13:02:07.892Z,5.52
2018-12-21T13:03:07.879Z,5.46
2018-12-21T13:04:07.865Z,5.44
2018-12-21T13:05:07.606Z,5.51
2018-12-21T13:06:07.841Z,5.45
2018-12-21T13:07:07.822Z,5.51
2018-12-21T13:08:07.807Z,5.46
2018-12-21T13:09:07.796Z,5.48
2018-12-21T13:10:07.773Z,5.62
2018-12-21T13:11:07.759Z,5.54
2018-12-21T13:12:07.744Z,5.64
2018-12-21T13:13:07.488Z,5.62
2018-12-21T13:14:07.723Z,5.64
2018-12-21T13:15:07.449Z,5.66
2018-12-21T13:16:07.435Z,5.72
2018-12-21T13:17:07.676Z,5.77
2018-12-21T13:18:07.657Z,5.7
2018-12-21T13:19:07.391Z,5.75
2018-12-21T13:20:07.635Z,5.7
2018-12-21T13:21:07.613Z,5.7
2018-12-21T13:22:07.597Z,5.7
2018-12-21T13:23:07.579Z,5.7
2018-12-21T13:24:07.568Z,5.72
2018-12-21T13:25:16.392Z,5.6
2018-12-21T13:26:07.539Z,5.75
2018-12-21T13:27:07.523Z,5.75
2018-12-21T13:28:07.507Z,5.75
2018-12-21T13:29:07.249Z,5.77
2018-12-21T13:30:07.490Z,5.67
2018-12-21T13:31:07.463Z,5.8
2018-12-21T13:32:07.445Z,5.7
2018-12-21T13:33:07.182Z,5.72
2018-12-21T13:34:07.167Z,5.69
2018-12-21T13:35:07.160Z,5.7
2018-12-21T13:36:07.387Z,5.67
2018-12-21T13:37:07.540Z,5.6
2018-12-21T13:38:07.355Z,5.49
2018-12-21T13:39:07.341Z,5.57
2018-12-21T13:40:07.328Z,5.55
2018-12-21T13:41:07.309Z,5.51
2018-12-21T13:42:07.295Z,5.55
2018-12-21T13:43:07.279Z,5.48
2018-12-21T13:44:07.021Z,5.48
2018-12-21T13:45:07.008Z,5.48
2018-12-21T13:46:07.238Z,5.41
2018-12-21T13:47:07.222Z,5.46
2018-12-21T13:48:07.211Z,5.52
2018-12-21T13:49:07.189Z,5.46
2018-12-21T13:50:07.177Z,5.48
2018-12-21T13:51:07.167Z,5.51
2018-12-21T13:52:07.145Z,5.54
2018-12-21T13:53:07.131Z,5.48
2018-12-21T13:54:07.117Z,5.51
2018-12-21T13:55:07.099Z,5.51
2018-12-21T13:56:07.084Z,5.52
2018-12-21T13:57:07.069Z,5.67